Etusivu
METAR-TAF:

METAR-TAF

Lentoasemat :

Sotilaslentoasema

Meppen, Saksa

Leveyspiiri: 52-43-24N, Pituuspiiri: 007-19-35E, korkeus merenpinnasta: 21 m

Tämänhetkinen sää

Tämä raportti tehtiin 39 minuuttia sitten, kello 06.20 UTC
Tuuli 6 kn lännestä/lounaasta
Lämpötila 6°C
Kosteus 93%
Ilmanpaine 1014 hPa
Näkyvyys: 8000 m
Hajonneita pilviä 700 ft:n korkeudessa
Hajonneita pilviä 17000 ft:n korkeudessa

METAR: ETWM 190620Z 24006KT 8000 BKN007 BKN170 06/05 Q1014 GRN

Aika: 07:59 (06:59 UTC)


TAF: puuttuu

Säähavainnot ja -ennusteet yli 4000 lentoasemalta (METAR- ja TAF-raportit).

Käytössä olevat sääasemat on merkitty karttaan keltaisilla ja punaisilla pisteillä.

Aseta hiiri pisteen päälle nähdäksesi sääaseman nimen.

Klikkaa sitten nähdäksesi säähavainnot ja -ennusteet.

Kartan vaihtaminen: klikkaa mustalla rastilla varustettuja vihreitä pisteitä, niin voit zoomata sisään; viivalla varustettua vihreää pistettä, niin voit zoomata ulos tai vihreitä nuolia, niin pääset viereisille kartoille.


METAR-TAF: